sensor_id;sensor_type;location;lat;lon;timestamp;temperature;humidity
52275;DHT22;38228;50.940;4.024;2022-08-03T00:02:23;23.50;99.90
52275;DHT22;38228;50.940;4.024;2022-08-03T00:04:49;23.40;99.90
52275;DHT22;38228;50.940;4.024;2022-08-03T00:07:15;23.50;99.90
52275;DHT22;38228;50.940;4.024;2022-08-03T00:09:41;23.40;99.90
52275;DHT22;38228;50.940;4.024;2022-08-03T00:12:07;23.40;99.90
52275;DHT22;38228;50.940;4.024;2022-08-03T00:14:32;23.30;99.90
52275;DHT22;38228;50.940;4.024;2022-08-03T00:16:58;23.30;99.90
52275;DHT22;38228;50.940;4.024;2022-08-03T00:19:24;23.10;99.90
52275;DHT22;38228;50.940;4.024;2022-08-03T00:21:50;23.10;99.90
52275;DHT22;38228;50.940;4.024;2022-08-03T00:24:15;23.00;99.90
52275;DHT22;38228;50.940;4.024;2022-08-03T00:26:41;23.00;99.90
52275;DHT22;38228;50.940;4.024;2022-08-03T00:29:07;22.90;99.90
52275;DHT22;38228;50.940;4.024;2022-08-03T00:31:32;22.80;99.90
52275;DHT22;38228;50.940;4.024;2022-08-03T00:33:58;22.80;99.90
52275;DHT22;38228;50.940;4.024;2022-08-03T00:36:24;22.80;99.90
52275;DHT22;38228;50.940;4.024;2022-08-03T00:38:50;22.90;99.90
52275;DHT22;38228;50.940;4.024;2022-08-03T00:41:16;22.80;99.90
52275;DHT22;38228;50.940;4.024;2022-08-03T00:43:41;22.70;99.90
52275;DHT22;38228;50.940;4.024;2022-08-03T00:46:09;22.70;99.90
52275;DHT22;38228;50.940;4.024;2022-08-03T00:48:35;22.60;99.90
52275;DHT22;38228;50.940;4.024;2022-08-03T00:51:00;22.50;99.90
52275;DHT22;38228;50.940;4.024;2022-08-03T00:53:26;22.50;99.90
52275;DHT22;38228;50.940;4.024;2022-08-03T00:55:53;22.50;99.90
52275;DHT22;38228;50.940;4.024;2022-08-03T00:58:18;22.40;99.90
52275;DHT22;38228;50.940;4.024;2022-08-03T01:00:44;22.50;99.90
52275;DHT22;38228;50.940;4.024;2022-08-03T01:03:10;22.40;99.90
52275;DHT22;38228;50.940;4.024;2022-08-03T01:05:55;22.40;99.90
52275;DHT22;38228;50.940;4.024;2022-08-03T01:11:09;22.20;99.90
52275;DHT22;38228;50.940;4.024;2022-08-03T01:14:00;22.20;99.90
52275;DHT22;38228;50.940;4.024;2022-08-03T01:16:32;22.20;99.90
52275;DHT22;38228;50.940;4.024;2022-08-03T01:21:39;22.10;99.90
52275;DHT22;38228;50.940;4.024;2022-08-03T01:27:06;22.20;99.90
52275;DHT22;38228;50.940;4.024;2022-08-03T01:30:03;22.00;99.90
52275;DHT22;38228;50.940;4.024;2022-08-03T01:32:40;22.00;99.90
52275;DHT22;38228;50.940;4.024;2022-08-03T01:35:16;21.80;99.90
52275;DHT22;38228;50.940;4.024;2022-08-03T01:37:51;21.70;99.90
52275;DHT22;38228;50.940;4.024;2022-08-03T01:40:19;21.70;99.90
52275;DHT22;38228;50.940;4.024;2022-08-03T01:42:46;21.70;99.90
52275;DHT22;38228;50.940;4.024;2022-08-03T01:45:15;21.70;99.90
52275;DHT22;38228;50.940;4.024;2022-08-03T01:47:44;21.70;99.90
52275;DHT22;38228;50.940;4.024;2022-08-03T01:50:12;21.70;99.90
52275;DHT22;38228;50.940;4.024;2022-08-03T01:52:43;21.70;99.90
52275;DHT22;38228;50.940;4.024;2022-08-03T01:55:11;21.70;99.90
52275;DHT22;38228;50.940;4.024;2022-08-03T01:57:39;21.70;99.90
52275;DHT22;38228;50.940;4.024;2022-08-03T02:00:09;21.70;99.90
52275;DHT22;38228;50.940;4.024;2022-08-03T02:02:36;21.70;99.90
52275;DHT22;38228;50.940;4.024;2022-08-03T02:05:05;21.60;99.90
52275;DHT22;38228;50.940;4.024;2022-08-03T02:07:33;21.60;99.90
52275;DHT22;38228;50.940;4.024;2022-08-03T02:10:00;21.60;99.90
52275;DHT22;38228;50.940;4.024;2022-08-03T02:12:29;21.50;99.90
52275;DHT22;38228;50.940;4.024;2022-08-03T02:14:56;21.40;99.90
52275;DHT22;38228;50.940;4.024;2022-08-03T02:17:24;21.40;99.90
52275;DHT22;38228;50.940;4.024;2022-08-03T02:19:51;21.40;99.90
52275;DHT22;38228;50.940;4.024;2022-08-03T02:22:17;21.50;99.90
52275;DHT22;38228;50.940;4.024;2022-08-03T02:24:43;21.60;99.90
52275;DHT22;38228;50.940;4.024;2022-08-03T02:27:22;21.60;99.90
52275;DHT22;38228;50.940;4.024;2022-08-03T02:29:52;21.50;99.90
52275;DHT22;38228;50.940;4.024;2022-08-03T02:32:24;21.50;99.90
52275;DHT22;38228;50.940;4.024;2022-08-03T02:34:55;21.50;99.90
52275;DHT22;38228;50.940;4.024;2022-08-03T02:37:26;21.40;99.90
52275;DHT22;38228;50.940;4.024;2022-08-03T02:39:57;21.40;99.90
52275;DHT22;38228;50.940;4.024;2022-08-03T02:42:24;21.30;99.90
52275;DHT22;38228;50.940;4.024;2022-08-03T02:44:52;21.30;99.90
52275;DHT22;38228;50.940;4.024;2022-08-03T02:47:20;21.20;99.90
52275;DHT22;38228;50.940;4.024;2022-08-03T02:49:47;21.20;99.90
52275;DHT22;38228;50.940;4.024;2022-08-03T02:52:14;21.20;99.90
52275;DHT22;38228;50.940;4.024;2022-08-03T02:54:42;21.20;99.90
52275;DHT22;38228;50.940;4.024;2022-08-03T02:57:10;21.20;99.90
52275;DHT22;38228;50.940;4.024;2022-08-03T02:59:38;21.20;99.90
52275;DHT22;38228;50.940;4.024;2022-08-03T03:02:05;21.20;99.90
52275;DHT22;38228;50.940;4.024;2022-08-03T03:04:31;21.10;99.90
52275;DHT22;38228;50.940;4.024;2022-08-03T03:06:57;21.10;99.90
52275;DHT22;38228;50.940;4.024;2022-08-03T03:09:24;21.10;99.90
52275;DHT22;38228;50.940;4.024;2022-08-03T03:11:51;21.10;99.90
52275;DHT22;38228;50.940;4.024;2022-08-03T03:14:18;21.10;99.90
52275;DHT22;38228;50.940;4.024;2022-08-03T03:16:44;21.10;99.90
52275;DHT22;38228;50.940;4.024;2022-08-03T03:19:13;21.00;99.90
52275;DHT22;38228;50.940;4.024;2022-08-03T03:21:42;21.00;99.90
52275;DHT22;38228;50.940;4.024;2022-08-03T03:24:08;20.90;99.90
52275;DHT22;38228;50.940;4.024;2022-08-03T03:26:35;20.80;99.90
52275;DHT22;38228;50.940;4.024;2022-08-03T03:29:02;20.70;99.90
52275;DHT22;38228;50.940;4.024;2022-08-03T03:31:28;20.70;99.90
52275;DHT22;38228;50.940;4.024;2022-08-03T03:33:56;20.70;99.90
52275;DHT22;38228;50.940;4.024;2022-08-03T03:36:22;20.70;99.90
52275;DHT22;38228;50.940;4.024;2022-08-03T03:38:48;20.70;99.90
52275;DHT22;38228;50.940;4.024;2022-08-03T03:41:14;20.80;99.90
52275;DHT22;38228;50.940;4.024;2022-08-03T03:43:39;20.80;99.90
52275;DHT22;38228;50.940;4.024;2022-08-03T03:46:05;20.80;99.90
52275;DHT22;38228;50.940;4.024;2022-08-03T03:48:33;20.70;99.90
52275;DHT22;38228;50.940;4.024;2022-08-03T03:50:59;20.60;99.90
52275;DHT22;38228;50.940;4.024;2022-08-03T03:53:25;20.70;99.90
52275;DHT22;38228;50.940;4.024;2022-08-03T03:55:51;20.70;99.90
52275;DHT22;38228;50.940;4.024;2022-08-03T03:58:19;20.60;99.90
52275;DHT22;38228;50.940;4.024;2022-08-03T04:00:45;20.60;99.90
52275;DHT22;38228;50.940;4.024;2022-08-03T04:03:11;20.70;99.90
52275;DHT22;38228;50.940;4.024;2022-08-03T04:05:36;20.70;99.90
52275;DHT22;38228;50.940;4.024;2022-08-03T04:08:21;20.70;99.90
52275;DHT22;38228;50.940;4.024;2022-08-03T04:11:18;20.60;99.90
52275;DHT22;38228;50.940;4.024;2022-08-03T04:16:16;20.50;99.90
52275;DHT22;38228;50.940;4.024;2022-08-03T04:18:46;20.50;99.90
52275;DHT22;38228;50.940;4.024;2022-08-03T04:21:15;20.60;99.90
52275;DHT22;38228;50.940;4.024;2022-08-03T04:23:45;20.60;99.90
52275;DHT22;38228;50.940;4.024;2022-08-03T04:26:14;20.60;99.90
52275;DHT22;38228;50.940;4.024;2022-08-03T04:28:43;20.60;99.90
52275;DHT22;38228;50.940;4.024;2022-08-03T04:31:12;20.60;99.90
52275;DHT22;38228;50.940;4.024;2022-08-03T04:33:40;20.50;99.90
52275;DHT22;38228;50.940;4.024;2022-08-03T04:36:08;20.40;99.90
52275;DHT22;38228;50.940;4.024;2022-08-03T04:39:25;20.30;99.90
52275;DHT22;38228;50.940;4.024;2022-08-03T04:41:32;20.40;99.90
52275;DHT22;38228;50.940;4.024;2022-08-03T04:44:00;20.40;99.90
52275;DHT22;38228;50.940;4.024;2022-08-03T04:46:28;20.40;99.90
52275;DHT22;38228;50.940;4.024;2022-08-03T04:48:56;20.50;99.90
52275;DHT22;38228;50.940;4.024;2022-08-03T04:51:22;20.40;99.90
52275;DHT22;38228;50.940;4.024;2022-08-03T04:53:49;20.30;99.90
52275;DHT22;38228;50.940;4.024;2022-08-03T04:56:14;20.40;99.90
52275;DHT22;38228;50.940;4.024;2022-08-03T04:58:40;20.50;99.90
52275;DHT22;38228;50.940;4.024;2022-08-03T05:01:06;20.60;99.90
52275;DHT22;38228;50.940;4.024;2022-08-03T05:03:32;20.60;99.90
52275;DHT22;38228;50.940;4.024;2022-08-03T05:05:57;20.70;99.90
52275;DHT22;38228;50.940;4.024;2022-08-03T05:08:23;20.70;99.90
52275;DHT22;38228;50.940;4.024;2022-08-03T05:10:49;20.80;99.90
52275;DHT22;38228;50.940;4.024;2022-08-03T05:13:14;20.80;99.90
52275;DHT22;38228;50.940;4.024;2022-08-03T05:15:40;20.90;99.90
52275;DHT22;38228;50.940;4.024;2022-08-03T05:18:06;21.10;99.90
52275;DHT22;38228;50.940;4.024;2022-08-03T05:20:32;21.10;99.90
52275;DHT22;38228;50.940;4.024;2022-08-03T05:22:58;21.20;99.90
52275;DHT22;38228;50.940;4.024;2022-08-03T05:25:26;21.30;99.90
52275;DHT22;38228;50.940;4.024;2022-08-03T05:27:52;21.40;99.90
52275;DHT22;38228;50.940;4.024;2022-08-03T05:30:18;21.50;99.90
52275;DHT22;38228;50.940;4.024;2022-08-03T05:32:44;21.50;99.90
52275;DHT22;38228;50.940;4.024;2022-08-03T05:35:09;21.50;99.90
52275;DHT22;38228;50.940;4.024;2022-08-03T05:37:35;21.60;99.90
52275;DHT22;38228;50.940;4.024;2022-08-03T05:40:02;21.80;99.90
52275;DHT22;38228;50.940;4.024;2022-08-03T05:42:28;21.80;99.90
52275;DHT22;38228;50.940;4.024;2022-08-03T05:44:54;21.90;99.90
52275;DHT22;38228;50.940;4.024;2022-08-03T05:47:19;22.10;99.90
52275;DHT22;38228;50.940;4.024;2022-08-03T05:49:45;22.20;99.90
52275;DHT22;38228;50.940;4.024;2022-08-03T05:52:11;22.20;99.90
52275;DHT22;38228;50.940;4.024;2022-08-03T05:54:37;22.40;99.90
52275;DHT22;38228;50.940;4.024;2022-08-03T05:57:02;22.30;99.90
52275;DHT22;38228;50.940;4.024;2022-08-03T05:59:28;22.30;99.90
52275;DHT22;38228;50.940;4.024;2022-08-03T06:01:53;22.40;99.90
52275;DHT22;38228;50.940;4.024;2022-08-03T06:04:19;22.30;99.90
52275;DHT22;38228;50.940;4.024;2022-08-03T06:06:45;22.40;99.90
52275;DHT22;38228;50.940;4.024;2022-08-03T06:09:11;22.60;99.90
52275;DHT22;38228;50.940;4.024;2022-08-03T06:11:38;22.60;99.90
52275;DHT22;38228;50.940;4.024;2022-08-03T06:14:04;22.60;99.90
52275;DHT22;38228;50.940;4.024;2022-08-03T06:16:31;22.50;99.90
52275;DHT22;38228;50.940;4.024;2022-08-03T06:18:56;22.50;99.90
52275;DHT22;38228;50.940;4.024;2022-08-03T06:21:22;22.60;99.90
52275;DHT22;38228;50.940;4.024;2022-08-03T06:23:48;22.60;99.90
52275;DHT22;38228;50.940;4.024;2022-08-03T06:26:14;22.70;99.90
52275;DHT22;38228;50.940;4.024;2022-08-03T06:28:39;22.70;99.90
52275;DHT22;38228;50.940;4.024;2022-08-03T06:31:05;22.80;99.90
52275;DHT22;38228;50.940;4.024;2022-08-03T06:33:31;22.90;99.90
52275;DHT22;38228;50.940;4.024;2022-08-03T06:35:56;23.00;99.90
52275;DHT22;38228;50.940;4.024;2022-08-03T06:38:22;23.00;99.90
52275;DHT22;38228;50.940;4.024;2022-08-03T06:40:48;23.00;99.90
52275;DHT22;38228;50.940;4.024;2022-08-03T06:43:14;23.10;99.90
52275;DHT22;38228;50.940;4.024;2022-08-03T06:45:40;23.20;99.90
52275;DHT22;38228;50.940;4.024;2022-08-03T06:48:08;23.30;99.90
52275;DHT22;38228;50.940;4.024;2022-08-03T06:50:38;23.40;99.90
52275;DHT22;38228;50.940;4.024;2022-08-03T06:53:04;23.30;99.90
52275;DHT22;38228;50.940;4.024;2022-08-03T06:55:31;23.20;99.90
52275;DHT22;38228;50.940;4.024;2022-08-03T06:57:57;23.40;99.90
52275;DHT22;38228;50.940;4.024;2022-08-03T07:00:23;23.40;99.90
52275;DHT22;38228;50.940;4.024;2022-08-03T07:02:49;23.40;99.90
52275;DHT22;38228;50.940;4.024;2022-08-03T07:05:15;23.40;99.90
52275;DHT22;38228;50.940;4.024;2022-08-03T07:07:41;23.40;99.90
52275;DHT22;38228;50.940;4.024;2022-08-03T07:10:08;23.50;99.90
52275;DHT22;38228;50.940;4.024;2022-08-03T07:12:34;23.60;99.90
52275;DHT22;38228;50.940;4.024;2022-08-03T07:15:01;23.70;99.90
52275;DHT22;38228;50.940;4.024;2022-08-03T07:17:32;23.60;99.90
52275;DHT22;38228;50.940;4.024;2022-08-03T07:19:58;23.70;99.90
52275;DHT22;38228;50.940;4.024;2022-08-03T07:22:25;23.80;99.90
52275;DHT22;38228;50.940;4.024;2022-08-03T07:24:50;23.90;99.90
52275;DHT22;38228;50.940;4.024;2022-08-03T07:27:16;24.00;99.90
52275;DHT22;38228;50.940;4.024;2022-08-03T07:29:42;24.20;99.90
52275;DHT22;38228;50.940;4.024;2022-08-03T07:32:08;24.20;99.90
52275;DHT22;38228;50.940;4.024;2022-08-03T07:34:33;24.10;99.90
52275;DHT22;38228;50.940;4.024;2022-08-03T07:36:59;24.30;99.90
52275;DHT22;38228;50.940;4.024;2022-08-03T07:39:25;24.40;99.90
52275;DHT22;38228;50.940;4.024;2022-08-03T07:41:51;24.50;99.90
52275;DHT22;38228;50.940;4.024;2022-08-03T07:44:17;24.60;99.90
52275;DHT22;38228;50.940;4.024;2022-08-03T07:46:43;24.60;99.90
52275;DHT22;38228;50.940;4.024;2022-08-03T07:49:09;24.60;99.90
52275;DHT22;38228;50.940;4.024;2022-08-03T07:51:35;24.70;99.90
52275;DHT22;38228;50.940;4.024;2022-08-03T07:54:01;24.50;99.90
52275;DHT22;38228;50.940;4.024;2022-08-03T07:56:27;24.50;99.90
52275;DHT22;38228;50.940;4.024;2022-08-03T07:58:53;24.60;99.90
52275;DHT22;38228;50.940;4.024;2022-08-03T08:01:19;24.80;99.90
52275;DHT22;38228;50.940;4.024;2022-08-03T08:03:46;25.00;99.90
52275;DHT22;38228;50.940;4.024;2022-08-03T08:06:12;25.10;99.90
52275;DHT22;38228;50.940;4.024;2022-08-03T08:08:38;25.20;99.90
52275;DHT22;38228;50.940;4.024;2022-08-03T08:11:04;25.30;99.90
52275;DHT22;38228;50.940;4.024;2022-08-03T08:13:30;25.60;99.90
52275;DHT22;38228;50.940;4.024;2022-08-03T08:15:56;25.70;99.90
52275;DHT22;38228;50.940;4.024;2022-08-03T08:18:22;25.80;99.90
52275;DHT22;38228;50.940;4.024;2022-08-03T08:20:49;26.00;99.90
52275;DHT22;38228;50.940;4.024;2022-08-03T08:23:15;26.20;99.90
52275;DHT22;38228;50.940;4.024;2022-08-03T08:25:47;26.30;99.90
52275;DHT22;38228;50.940;4.024;2022-08-03T08:28:13;26.40;99.90
52275;DHT22;38228;50.940;4.024;2022-08-03T08:30:39;26.40;99.90
52275;DHT22;38228;50.940;4.024;2022-08-03T08:33:05;26.50;99.90
52275;DHT22;38228;50.940;4.024;2022-08-03T08:35:30;26.50;99.90
52275;DHT22;38228;50.940;4.024;2022-08-03T08:37:59;26.60;99.90
52275;DHT22;38228;50.940;4.024;2022-08-03T08:40:26;26.90;99.90
52275;DHT22;38228;50.940;4.024;2022-08-03T08:42:52;27.10;99.90
52275;DHT22;38228;50.940;4.024;2022-08-03T08:45:18;27.20;99.90
52275;DHT22;38228;50.940;4.024;2022-08-03T08:47:45;27.40;99.90
52275;DHT22;38228;50.940;4.024;2022-08-03T08:50:11;27.50;99.90
52275;DHT22;38228;50.940;4.024;2022-08-03T08:52:40;27.60;99.90
52275;DHT22;38228;50.940;4.024;2022-08-03T08:55:08;27.60;99.90
52275;DHT22;38228;50.940;4.024;2022-08-03T08:57:36;27.80;99.90
52275;DHT22;38228;50.940;4.024;2022-08-03T09:00:10;28.00;99.90
52275;DHT22;38228;50.940;4.024;2022-08-03T09:02:40;27.90;99.90
52275;DHT22;38228;50.940;4.024;2022-08-03T09:05:09;27.60;99.90
52275;DHT22;38228;50.940;4.024;2022-08-03T09:07:37;27.50;99.90
52275;DHT22;38228;50.940;4.024;2022-08-03T09:10:03;27.70;99.90
52275;DHT22;38228;50.940;4.024;2022-08-03T09:12:30;27.90;99.90
52275;DHT22;38228;50.940;4.024;2022-08-03T09:14:55;28.10;99.90
52275;DHT22;38228;50.940;4.024;2022-08-03T09:17:21;28.10;99.90
52275;DHT22;38228;50.940;4.024;2022-08-03T09:20:13;28.10;99.90
52275;DHT22;38228;50.940;4.024;2022-08-03T09:23:07;28.20;99.90
52275;DHT22;38228;50.940;4.024;2022-08-03T09:25:41;28.10;99.90
52275;DHT22;38228;50.940;4.024;2022-08-03T09:28:12;28.40;99.90
52275;DHT22;38228;50.940;4.024;2022-08-03T09:30:56;28.60;99.90
52275;DHT22;38228;50.940;4.024;2022-08-03T09:33:22;28.50;99.90
52275;DHT22;38228;50.940;4.024;2022-08-03T09:35:48;28.60;99.90
52275;DHT22;38228;50.940;4.024;2022-08-03T09:38:22;28.70;99.90
52275;DHT22;38228;50.940;4.024;2022-08-03T09:40:50;28.70;99.90
52275;DHT22;38228;50.940;4.024;2022-08-03T09:43:16;28.80;99.90
52275;DHT22;38228;50.940;4.024;2022-08-03T09:45:42;28.80;99.90
52275;DHT22;38228;50.940;4.024;2022-08-03T09:48:28;29.00;99.90
52275;DHT22;38228;50.940;4.024;2022-08-03T09:50:57;29.30;99.70
52275;DHT22;38228;50.940;4.024;2022-08-03T09:53:23;29.40;99.30
52275;DHT22;38228;50.940;4.024;2022-08-03T09:55:59;29.30;98.80
52275;DHT22;38228;50.940;4.024;2022-08-03T09:58:27;29.10;99.40
52275;DHT22;38228;50.940;4.024;2022-08-03T10:00:54;29.30;99.70
52275;DHT22;38228;50.940;4.024;2022-08-03T10:03:21;29.20;98.70
52275;DHT22;38228;50.940;4.024;2022-08-03T10:05:47;29.20;98.90
52275;DHT22;38228;50.940;4.024;2022-08-03T10:08:18;29.20;98.90
52275;DHT22;38228;50.940;4.024;2022-08-03T10:10:47;29.20;99.10
52275;DHT22;38228;50.940;4.024;2022-08-03T10:13:15;29.20;98.90
52275;DHT22;38228;50.940;4.024;2022-08-03T10:15:41;29.40;98.90
52275;DHT22;38228;50.940;4.024;2022-08-03T10:18:07;29.40;98.50
52275;DHT22;38228;50.940;4.024;2022-08-03T10:20:50;29.60;98.40
52275;DHT22;38228;50.940;4.024;2022-08-03T10:23:17;29.70;98.10
52275;DHT22;38228;50.940;4.024;2022-08-03T10:25:46;29.90;97.90
52275;DHT22;38228;50.940;4.024;2022-08-03T10:28:15;29.80;97.70
52275;DHT22;38228;50.940;4.024;2022-08-03T10:30:46;29.60;98.10
52275;DHT22;38228;50.940;4.024;2022-08-03T10:33:27;29.70;98.00
52275;DHT22;38228;50.940;4.024;2022-08-03T10:35:55;30.00;97.90
52275;DHT22;38228;50.940;4.024;2022-08-03T10:38:28;30.20;97.40
52275;DHT22;38228;50.940;4.024;2022-08-03T10:40:55;30.30;97.10
52275;DHT22;38228;50.940;4.024;2022-08-03T10:43:26;30.70;96.80
52275;DHT22;38228;50.940;4.024;2022-08-03T10:45:52;30.80;96.50
52275;DHT22;38228;50.940;4.024;2022-08-03T10:48:20;30.60;96.20
52275;DHT22;38228;50.940;4.024;2022-08-03T10:50:47;30.30;96.50
52275;DHT22;38228;50.940;4.024;2022-08-03T10:53:13;30.50;96.40
52275;DHT22;38228;50.940;4.024;2022-08-03T10:55:44;30.50;96.30
52275;DHT22;38228;50.940;4.024;2022-08-03T10:58:52;30.70;96.00
52275;DHT22;38228;50.940;4.024;2022-08-03T11:01:48;30.90;95.10
52275;DHT22;38228;50.940;4.024;2022-08-03T11:06:31;30.90;95.00
52275;DHT22;38228;50.940;4.024;2022-08-03T11:09:27;30.70;95.00
52275;DHT22;38228;50.940;4.024;2022-08-03T11:12:27;30.70;95.10
52275;DHT22;38228;50.940;4.024;2022-08-03T11:14:54;30.70;95.10
52275;DHT22;38228;50.940;4.024;2022-08-03T11:17:20;30.70;94.70
52275;DHT22;38228;50.940;4.024;2022-08-03T11:19:49;30.90;94.60
52275;DHT22;38228;50.940;4.024;2022-08-03T11:22:16;30.90;94.40
52275;DHT22;38228;50.940;4.024;2022-08-03T11:35:17;31.70;92.90
52275;DHT22;38228;50.940;4.024;2022-08-03T11:40:38;31.40;93.00
52275;DHT22;38228;50.940;4.024;2022-08-03T11:45:57;31.50;93.10
52275;DHT22;38228;50.940;4.024;2022-08-03T11:48:27;31.50;93.00
52275;DHT22;38228;50.940;4.024;2022-08-03T11:50:53;31.60;92.90
52275;DHT22;38228;50.940;4.024;2022-08-03T11:53:19;31.50;92.80
52275;DHT22;38228;50.940;4.024;2022-08-03T11:55:46;31.70;93.00
52275;DHT22;38228;50.940;4.024;2022-08-03T11:58:19;31.60;92.90
52275;DHT22;38228;50.940;4.024;2022-08-03T12:00:45;31.80;92.30
52275;DHT22;38228;50.940;4.024;2022-08-03T12:03:13;31.90;92.50
52275;DHT22;38228;50.940;4.024;2022-08-03T12:05:49;32.10;92.00
52275;DHT22;38228;50.940;4.024;2022-08-03T12:08:17;32.30;91.50
52275;DHT22;38228;50.940;4.024;2022-08-03T12:10:48;32.50;91.30
52275;DHT22;38228;50.940;4.024;2022-08-03T12:13:15;32.80;90.60
52275;DHT22;38228;50.940;4.024;2022-08-03T12:15:41;33.00;90.30
52275;DHT22;38228;50.940;4.024;2022-08-03T12:18:16;33.00;89.20
52275;DHT22;38228;50.940;4.024;2022-08-03T12:20:43;32.90;89.90
52275;DHT22;38228;50.940;4.024;2022-08-03T12:23:10;32.50;90.00
52275;DHT22;38228;50.940;4.024;2022-08-03T12:25:38;32.30;90.30
52275;DHT22;38228;50.940;4.024;2022-08-03T12:28:11;32.40;90.50
52275;DHT22;38228;50.940;4.024;2022-08-03T12:30:39;32.50;90.00
52275;DHT22;38228;50.940;4.024;2022-08-03T12:33:21;32.70;89.90
52275;DHT22;38228;50.940;4.024;2022-08-03T12:36:08;32.80;89.30
52275;DHT22;38228;50.940;4.024;2022-08-03T12:38:36;33.00;88.80
52275;DHT22;38228;50.940;4.024;2022-08-03T12:41:07;33.00;88.90
52275;DHT22;38228;50.940;4.024;2022-08-03T12:43:36;33.10;88.70
52275;DHT22;38228;50.940;4.024;2022-08-03T12:46:16;33.30;87.70
52275;DHT22;38228;50.940;4.024;2022-08-03T12:54:18;33.10;86.70
52275;DHT22;38228;50.940;4.024;2022-08-03T12:56:58;33.50;85.60
52275;DHT22;38228;50.940;4.024;2022-08-03T12:59:31;33.30;85.60
52275;DHT22;38228;50.940;4.024;2022-08-03T13:01:57;33.50;85.40
52275;DHT22;38228;50.940;4.024;2022-08-03T13:04:33;33.30;85.80
52275;DHT22;38228;50.940;4.024;2022-08-03T13:09:26;33.20;86.10
52275;DHT22;38228;50.940;4.024;2022-08-03T13:12:07;33.30;85.40
52275;DHT22;38228;50.940;4.024;2022-08-03T13:14:33;33.40;85.60
52275;DHT22;38228;50.940;4.024;2022-08-03T13:16:59;33.30;85.40
52275;DHT22;38228;50.940;4.024;2022-08-03T13:19:24;33.10;85.70
52275;DHT22;38228;50.940;4.024;2022-08-03T13:21:50;32.90;85.20
52275;DHT22;38228;50.940;4.024;2022-08-03T13:24:16;33.00;84.60
52275;DHT22;38228;50.940;4.024;2022-08-03T13:26:42;33.20;84.80
52275;DHT22;38228;50.940;4.024;2022-08-03T13:29:08;33.30;83.90
52275;DHT22;38228;50.940;4.024;2022-08-03T13:31:34;33.50;82.70
52275;DHT22;38228;50.940;4.024;2022-08-03T13:33:59;33.90;82.60
52275;DHT22;38228;50.940;4.024;2022-08-03T13:36:25;34.50;80.90
52275;DHT22;38228;50.940;4.024;2022-08-03T13:38:51;34.50;81.40
52275;DHT22;38228;50.940;4.024;2022-08-03T13:41:17;34.60;80.00
52275;DHT22;38228;50.940;4.024;2022-08-03T13:43:42;34.50;80.60
52275;DHT22;38228;50.940;4.024;2022-08-03T13:46:08;34.60;80.30
52275;DHT22;38228;50.940;4.024;2022-08-03T13:48:34;34.70;80.00
52275;DHT22;38228;50.940;4.024;2022-08-03T13:51:00;35.00;78.90
52275;DHT22;38228;50.940;4.024;2022-08-03T13:53:25;35.10;77.50
52275;DHT22;38228;50.940;4.024;2022-08-03T13:55:51;35.30;78.20
52275;DHT22;38228;50.940;4.024;2022-08-03T13:58:17;36.00;75.90
52275;DHT22;38228;50.940;4.024;2022-08-03T14:00:42;35.90;75.70
52275;DHT22;38228;50.940;4.024;2022-08-03T14:03:08;35.30;75.70
52275;DHT22;38228;50.940;4.024;2022-08-03T14:05:34;34.70;76.60
52275;DHT22;38228;50.940;4.024;2022-08-03T14:08:01;34.70;77.30
52275;DHT22;38228;50.940;4.024;2022-08-03T14:10:26;35.10;76.40
52275;DHT22;38228;50.940;4.024;2022-08-03T14:12:52;35.50;75.70
52275;DHT22;38228;50.940;4.024;2022-08-03T14:15:20;36.40;74.30
52275;DHT22;38228;50.940;4.024;2022-08-03T14:17:45;36.80;72.70
52275;DHT22;38228;50.940;4.024;2022-08-03T14:20:11;37.80;70.80
52275;DHT22;38228;50.940;4.024;2022-08-03T14:22:37;38.40;69.10
52275;DHT22;38228;50.940;4.024;2022-08-03T14:25:03;39.00;68.10
52275;DHT22;38228;50.940;4.024;2022-08-03T14:27:29;40.00;66.00
52275;DHT22;38228;50.940;4.024;2022-08-03T14:29:55;40.10;64.10
52275;DHT22;38228;50.940;4.024;2022-08-03T14:32:25;40.80;63.10
52275;DHT22;38228;50.940;4.024;2022-08-03T14:34:52;41.00;60.90
52275;DHT22;38228;50.940;4.024;2022-08-03T14:37:18;41.40;60.40
52275;DHT22;38228;50.940;4.024;2022-08-03T14:39:43;41.70;59.30
52275;DHT22;38228;50.940;4.024;2022-08-03T14:42:11;42.00;58.10
52275;DHT22;38228;50.940;4.024;2022-08-03T14:44:36;41.90;57.50
52275;DHT22;38228;50.940;4.024;2022-08-03T14:47:02;41.60;57.40
52275;DHT22;38228;50.940;4.024;2022-08-03T14:49:28;41.60;56.40
52275;DHT22;38228;50.940;4.024;2022-08-03T14:51:54;40.40;57.60
52275;DHT22;38228;50.940;4.024;2022-08-03T14:54:20;39.90;58.70
52275;DHT22;38228;50.940;4.024;2022-08-03T14:56:46;40.00;57.90
52275;DHT22;38228;50.940;4.024;2022-08-03T14:59:12;40.30;57.20
52275;DHT22;38228;50.940;4.024;2022-08-03T15:01:38;40.70;56.70
52275;DHT22;38228;50.940;4.024;2022-08-03T15:04:03;40.60;57.30
52275;DHT22;38228;50.940;4.024;2022-08-03T15:06:29;40.80;56.30
52275;DHT22;38228;50.940;4.024;2022-08-03T15:08:55;41.10;56.40
52275;DHT22;38228;50.940;4.024;2022-08-03T15:11:20;41.50;55.50
52275;DHT22;38228;50.940;4.024;2022-08-03T15:13:46;42.40;56.10
52275;DHT22;38228;50.940;4.024;2022-08-03T15:16:12;42.80;53.80
52275;DHT22;38228;50.940;4.024;2022-08-03T15:18:37;42.90;53.40
52275;DHT22;38228;50.940;4.024;2022-08-03T15:21:03;42.90;53.10
52275;DHT22;38228;50.940;4.024;2022-08-03T15:23:29;42.90;52.60
52275;DHT22;38228;50.940;4.024;2022-08-03T15:25:54;42.40;53.40
52275;DHT22;38228;50.940;4.024;2022-08-03T15:28:20;42.90;52.80
52275;DHT22;38228;50.940;4.024;2022-08-03T15:30:46;43.00;52.00
52275;DHT22;38228;50.940;4.024;2022-08-03T15:33:11;43.10;51.90
52275;DHT22;38228;50.940;4.024;2022-08-03T15:35:37;43.20;51.70
52275;DHT22;38228;50.940;4.024;2022-08-03T15:38:03;43.10;51.80
52275;DHT22;38228;50.940;4.024;2022-08-03T15:40:28;43.20;51.00
52275;DHT22;38228;50.940;4.024;2022-08-03T15:42:54;43.10;51.30
52275;DHT22;38228;50.940;4.024;2022-08-03T15:45:21;43.50;50.90
52275;DHT22;38228;50.940;4.024;2022-08-03T15:47:46;43.70;50.10
52275;DHT22;38228;50.940;4.024;2022-08-03T15:50:12;43.70;50.00
52275;DHT22;38228;50.940;4.024;2022-08-03T15:52:38;43.40;50.30
52275;DHT22;38228;50.940;4.024;2022-08-03T15:55:04;42.40;50.20
52275;DHT22;38228;50.940;4.024;2022-08-03T15:57:30;41.90;50.80
52275;DHT22;38228;50.940;4.024;2022-08-03T15:59:55;41.40;51.60
52275;DHT22;38228;50.940;4.024;2022-08-03T16:02:21;40.90;51.70
52275;DHT22;38228;50.940;4.024;2022-08-03T16:04:47;40.10;52.60
52275;DHT22;38228;50.940;4.024;2022-08-03T16:07:13;39.60;53.30
52275;DHT22;38228;50.940;4.024;2022-08-03T16:09:40;39.80;53.00
52275;DHT22;38228;50.940;4.024;2022-08-03T16:12:07;39.90;53.00
52275;DHT22;38228;50.940;4.024;2022-08-03T16:14:33;39.40;53.40